Airport View

Enter AWOS ICAO identifier for current METAR.

ex. KFNL

KTQH 191235Z AUTO 29009KT 10SM BKN026 15/15 A2981 RMK AO2

19 May 2019 13:00

Frequency: 118.425

Phone: 918-453-2729

Other Area AWOS: KMKO - KSLG - KJSV - KGCM

TAF AMD KXNA 191224Z 1912/2012 24006KT P6SM BKN015 TEMPO 1912/1914 OVC005 FM191400 29012KT P6SM SCT025 BKN040 FM191800 30010KT P6SM SCT050 FM200000 VRB03KT P6SM SCT250